sensor_id;sensor_type;location;lat;lon;timestamp;P1;durP1;ratioP1;P2;durP2;ratioP2
51943;SDS011;37969;53.132;6.370;2023-04-03T00:01:38;1.92;;;1.27;;
51943;SDS011;37969;53.132;6.370;2023-04-03T00:04:04;3.08;;;1.00;;
51943;SDS011;37969;53.132;6.370;2023-04-03T00:06:31;2.35;;;1.02;;
51943;SDS011;37969;53.132;6.370;2023-04-03T00:08:57;3.47;;;0.90;;
51943;SDS011;37969;53.132;6.370;2023-04-03T00:11:23;2.33;;;1.00;;
51943;SDS011;37969;53.132;6.370;2023-04-03T00:13:50;2.65;;;1.20;;
51943;SDS011;37969;53.132;6.370;2023-04-03T00:16:16;4.65;;;1.10;;
51943;SDS011;37969;53.132;6.370;2023-04-03T00:18:42;2.13;;;1.00;;
51943;SDS011;37969;53.132;6.370;2023-04-03T00:21:10;5.13;;;1.00;;
51943;SDS011;37969;53.132;6.370;2023-04-03T00:23:37;4.53;;;1.10;;
51943;SDS011;37969;53.132;6.370;2023-04-03T00:26:03;2.40;;;0.90;;
51943;SDS011;37969;53.132;6.370;2023-04-03T00:28:30;4.63;;;1.23;;
51943;SDS011;37969;53.132;6.370;2023-04-03T00:30:56;3.60;;;1.00;;
51943;SDS011;37969;53.132;6.370;2023-04-03T00:33:22;4.55;;;1.08;;
51943;SDS011;37969;53.132;6.370;2023-04-03T00:35:49;2.03;;;0.95;;
51943;SDS011;37969;53.132;6.370;2023-04-03T00:38:16;1.83;;;1.00;;
51943;SDS011;37969;53.132;6.370;2023-04-03T00:40:43;4.47;;;1.00;;
51943;SDS011;37969;53.132;6.370;2023-04-03T00:43:12;3.47;;;1.35;;
51943;SDS011;37969;53.132;6.370;2023-04-03T00:45:39;2.65;;;1.10;;
51943;SDS011;37969;53.132;6.370;2023-04-03T00:48:07;3.78;;;1.40;;
51943;SDS011;37969;53.132;6.370;2023-04-03T00:50:35;6.18;;;1.20;;
51943;SDS011;37969;53.132;6.370;2023-04-03T00:53:03;3.38;;;1.20;;
51943;SDS011;37969;53.132;6.370;2023-04-03T00:55:30;5.60;;;1.58;;
51943;SDS011;37969;53.132;6.370;2023-04-03T00:57:57;3.65;;;1.20;;
51943;SDS011;37969;53.132;6.370;2023-04-03T01:00:24;3.65;;;1.30;;
51943;SDS011;37969;53.132;6.370;2023-04-03T01:02:50;3.60;;;1.10;;
51943;SDS011;37969;53.132;6.370;2023-04-03T01:05:17;7.72;;;1.23;;
51943;SDS011;37969;53.132;6.370;2023-04-03T01:07:44;3.15;;;1.38;;
51943;SDS011;37969;53.132;6.370;2023-04-03T01:10:12;4.00;;;1.15;;
51943;SDS011;37969;53.132;6.370;2023-04-03T01:12:39;2.42;;;1.20;;
51943;SDS011;37969;53.132;6.370;2023-04-03T01:15:09;3.72;;;1.27;;
51943;SDS011;37969;53.132;6.370;2023-04-03T01:17:37;1.10;;;0.90;;
51943;SDS011;37969;53.132;6.370;2023-04-03T01:22:40;2.40;;;0.93;;
51943;SDS011;37969;53.132;6.370;2023-04-03T01:25:09;5.03;;;1.15;;
51943;SDS011;37969;53.132;6.370;2023-04-03T01:27:35;5.93;;;1.30;;
51943;SDS011;37969;53.132;6.370;2023-04-03T01:30:01;2.30;;;1.20;;
51943;SDS011;37969;53.132;6.370;2023-04-03T01:32:27;3.15;;;1.60;;
51943;SDS011;37969;53.132;6.370;2023-04-03T01:34:53;5.20;;;1.40;;
51943;SDS011;37969;53.132;6.370;2023-04-03T01:37:20;4.78;;;1.58;;
51943;SDS011;37969;53.132;6.370;2023-04-03T01:39:46;2.85;;;1.13;;
51943;SDS011;37969;53.132;6.370;2023-04-03T01:42:12;2.80;;;1.35;;
51943;SDS011;37969;53.132;6.370;2023-04-03T01:44:38;4.00;;;1.42;;
51943;SDS011;37969;53.132;6.370;2023-04-03T01:47:06;3.70;;;1.35;;
51943;SDS011;37969;53.132;6.370;2023-04-03T01:49:32;8.10;;;1.73;;
51943;SDS011;37969;53.132;6.370;2023-04-03T01:51:58;4.65;;;1.55;;
51943;SDS011;37969;53.132;6.370;2023-04-03T01:54:24;4.57;;;1.60;;
51943;SDS011;37969;53.132;6.370;2023-04-03T01:56:51;5.55;;;1.60;;
51943;SDS011;37969;53.132;6.370;2023-04-03T01:59:17;7.47;;;1.27;;
51943;SDS011;37969;53.132;6.370;2023-04-03T02:01:44;6.15;;;1.48;;
51943;SDS011;37969;53.132;6.370;2023-04-03T02:04:11;4.78;;;1.50;;
51943;SDS011;37969;53.132;6.370;2023-04-03T02:06:37;2.20;;;1.02;;
51943;SDS011;37969;53.132;6.370;2023-04-03T02:09:04;4.40;;;1.65;;
51943;SDS011;37969;53.132;6.370;2023-04-03T02:11:30;4.72;;;1.42;;
51943;SDS011;37969;53.132;6.370;2023-04-03T02:13:56;7.82;;;1.50;;
51943;SDS011;37969;53.132;6.370;2023-04-03T02:16:22;5.85;;;1.73;;
51943;SDS011;37969;53.132;6.370;2023-04-03T02:18:49;8.05;;;1.40;;
51943;SDS011;37969;53.132;6.370;2023-04-03T02:21:15;6.95;;;2.65;;
51943;SDS011;37969;53.132;6.370;2023-04-03T02:23:41;8.40;;;1.63;;
51943;SDS011;37969;53.132;6.370;2023-04-03T02:26:09;4.63;;;1.77;;
51943;SDS011;37969;53.132;6.370;2023-04-03T02:28:35;5.80;;;1.50;;
51943;SDS011;37969;53.132;6.370;2023-04-03T02:31:02;5.00;;;1.60;;
51943;SDS011;37969;53.132;6.370;2023-04-03T02:33:28;2.40;;;1.50;;
51943;SDS011;37969;53.132;6.370;2023-04-03T02:35:55;5.88;;;1.98;;
51943;SDS011;37969;53.132;6.370;2023-04-03T02:38:22;7.20;;;2.00;;
51943;SDS011;37969;53.132;6.370;2023-04-03T02:40:48;6.57;;;1.60;;
51943;SDS011;37969;53.132;6.370;2023-04-03T02:43:15;5.28;;;1.73;;
51943;SDS011;37969;53.132;6.370;2023-04-03T02:45:41;5.50;;;1.75;;
51943;SDS011;37969;53.132;6.370;2023-04-03T02:48:07;7.32;;;2.05;;
51943;SDS011;37969;53.132;6.370;2023-04-03T02:50:33;5.22;;;1.90;;
51943;SDS011;37969;53.132;6.370;2023-04-03T02:52:59;6.43;;;1.85;;
51943;SDS011;37969;53.132;6.370;2023-04-03T02:55:25;6.90;;;1.77;;
51943;SDS011;37969;53.132;6.370;2023-04-03T02:57:51;3.20;;;1.60;;
51943;SDS011;37969;53.132;6.370;2023-04-03T03:00:17;6.88;;;1.80;;
51943;SDS011;37969;53.132;6.370;2023-04-03T03:02:44;8.10;;;1.90;;
51943;SDS011;37969;53.132;6.370;2023-04-03T03:05:10;8.07;;;2.28;;
51943;SDS011;37969;53.132;6.370;2023-04-03T03:07:37;7.45;;;2.22;;
51943;SDS011;37969;53.132;6.370;2023-04-03T03:10:03;10.27;;;2.70;;
51943;SDS011;37969;53.132;6.370;2023-04-03T03:12:29;5.93;;;2.17;;
51943;SDS011;37969;53.132;6.370;2023-04-03T03:14:56;3.67;;;1.92;;
51943;SDS011;37969;53.132;6.370;2023-04-03T03:17:22;7.55;;;2.08;;
51943;SDS011;37969;53.132;6.370;2023-04-03T03:19:48;7.88;;;1.90;;
51943;SDS011;37969;53.132;6.370;2023-04-03T03:22:14;7.22;;;1.90;;
51943;SDS011;37969;53.132;6.370;2023-04-03T03:24:40;5.72;;;1.80;;
51943;SDS011;37969;53.132;6.370;2023-04-03T03:27:06;8.63;;;2.10;;
51943;SDS011;37969;53.132;6.370;2023-04-03T03:29:32;4.68;;;2.20;;
51943;SDS011;37969;53.132;6.370;2023-04-03T03:31:58;6.47;;;2.00;;
51943;SDS011;37969;53.132;6.370;2023-04-03T03:34:25;4.95;;;2.33;;
51943;SDS011;37969;53.132;6.370;2023-04-03T03:36:51;8.80;;;2.22;;
51943;SDS011;37969;53.132;6.370;2023-04-03T03:39:17;6.95;;;2.15;;
51943;SDS011;37969;53.132;6.370;2023-04-03T03:41:43;4.47;;;2.20;;
51943;SDS011;37969;53.132;6.370;2023-04-03T03:44:09;4.57;;;2.00;;
51943;SDS011;37969;53.132;6.370;2023-04-03T03:46:35;5.65;;;2.30;;
51943;SDS011;37969;53.132;6.370;2023-04-03T03:49:01;7.47;;;2.40;;
51943;SDS011;37969;53.132;6.370;2023-04-03T03:51:28;6.70;;;2.22;;
51943;SDS011;37969;53.132;6.370;2023-04-03T03:53:54;6.55;;;2.30;;
51943;SDS011;37969;53.132;6.370;2023-04-03T03:56:20;4.47;;;1.98;;
51943;SDS011;37969;53.132;6.370;2023-04-03T03:58:47;6.82;;;2.35;;
51943;SDS011;37969;53.132;6.370;2023-04-03T04:01:14;6.78;;;2.25;;
51943;SDS011;37969;53.132;6.370;2023-04-03T04:03:42;9.18;;;2.28;;
51943;SDS011;37969;53.132;6.370;2023-04-03T04:06:08;7.97;;;2.63;;
51943;SDS011;37969;53.132;6.370;2023-04-03T04:08:34;12.75;;;2.78;;
51943;SDS011;37969;53.132;6.370;2023-04-03T04:11:00;8.98;;;2.80;;
51943;SDS011;37969;53.132;6.370;2023-04-03T04:13:26;7.88;;;2.30;;
51943;SDS011;37969;53.132;6.370;2023-04-03T04:15:52;12.27;;;2.63;;
51943;SDS011;37969;53.132;6.370;2023-04-03T04:18:19;9.07;;;2.60;;
51943;SDS011;37969;53.132;6.370;2023-04-03T04:20:46;8.05;;;2.33;;
51943;SDS011;37969;53.132;6.370;2023-04-03T04:23:12;9.77;;;2.55;;
51943;SDS011;37969;53.132;6.370;2023-04-03T04:25:38;4.90;;;2.10;;
51943;SDS011;37969;53.132;6.370;2023-04-03T04:28:04;8.75;;;2.35;;
51943;SDS011;37969;53.132;6.370;2023-04-03T04:30:31;9.45;;;2.65;;
51943;SDS011;37969;53.132;6.370;2023-04-03T04:32:57;7.00;;;2.40;;
51943;SDS011;37969;53.132;6.370;2023-04-03T04:35:23;7.40;;;2.72;;
51943;SDS011;37969;53.132;6.370;2023-04-03T04:37:49;7.93;;;2.60;;
51943;SDS011;37969;53.132;6.370;2023-04-03T04:40:15;7.82;;;3.03;;
51943;SDS011;37969;53.132;6.370;2023-04-03T04:42:42;11.15;;;2.80;;
51943;SDS011;37969;53.132;6.370;2023-04-03T04:45:08;6.97;;;2.72;;
51943;SDS011;37969;53.132;6.370;2023-04-03T04:47:34;10.73;;;2.45;;
51943;SDS011;37969;53.132;6.370;2023-04-03T04:50:00;11.38;;;3.25;;
51943;SDS011;37969;53.132;6.370;2023-04-03T04:52:26;8.63;;;2.88;;
51943;SDS011;37969;53.132;6.370;2023-04-03T04:54:53;9.18;;;3.10;;
51943;SDS011;37969;53.132;6.370;2023-04-03T04:57:19;9.10;;;3.08;;
51943;SDS011;37969;53.132;6.370;2023-04-03T04:59:45;6.95;;;3.05;;
51943;SDS011;37969;53.132;6.370;2023-04-03T05:02:11;4.53;;;2.50;;
51943;SDS011;37969;53.132;6.370;2023-04-03T05:04:37;10.30;;;2.65;;
51943;SDS011;37969;53.132;6.370;2023-04-03T05:07:03;11.68;;;2.58;;
51943;SDS011;37969;53.132;6.370;2023-04-03T05:09:30;5.63;;;2.75;;
51943;SDS011;37969;53.132;6.370;2023-04-03T05:11:56;10.45;;;3.22;;
51943;SDS011;37969;53.132;6.370;2023-04-03T05:14:22;7.10;;;2.85;;
51943;SDS011;37969;53.132;6.370;2023-04-03T05:16:48;7.95;;;2.75;;
51943;SDS011;37969;53.132;6.370;2023-04-03T05:19:18;8.10;;;2.83;;
51943;SDS011;37969;53.132;6.370;2023-04-03T05:21:44;10.15;;;3.40;;
51943;SDS011;37969;53.132;6.370;2023-04-03T05:24:11;8.10;;;2.97;;
51943;SDS011;37969;53.132;6.370;2023-04-03T05:26:37;10.60;;;3.10;;
51943;SDS011;37969;53.132;6.370;2023-04-03T05:29:03;7.82;;;3.47;;
51943;SDS011;37969;53.132;6.370;2023-04-03T05:31:29;7.80;;;2.45;;
51943;SDS011;37969;53.132;6.370;2023-04-03T05:33:56;9.25;;;3.28;;
51943;SDS011;37969;53.132;6.370;2023-04-03T05:36:22;7.57;;;3.38;;
51943;SDS011;37969;53.132;6.370;2023-04-03T05:38:48;10.65;;;3.50;;
51943;SDS011;37969;53.132;6.370;2023-04-03T05:41:15;9.20;;;3.28;;
51943;SDS011;37969;53.132;6.370;2023-04-03T05:43:41;6.72;;;3.25;;
51943;SDS011;37969;53.132;6.370;2023-04-03T05:46:12;10.95;;;3.20;;
51943;SDS011;37969;53.132;6.370;2023-04-03T05:48:38;8.00;;;3.53;;
51943;SDS011;37969;53.132;6.370;2023-04-03T05:51:05;11.07;;;3.65;;
51943;SDS011;37969;53.132;6.370;2023-04-03T05:53:31;8.55;;;3.75;;
51943;SDS011;37969;53.132;6.370;2023-04-03T05:55:58;8.23;;;3.47;;
51943;SDS011;37969;53.132;6.370;2023-04-03T05:58:24;12.05;;;3.35;;
51943;SDS011;37969;53.132;6.370;2023-04-03T06:00:50;7.95;;;3.38;;
51943;SDS011;37969;53.132;6.370;2023-04-03T06:03:16;13.00;;;4.20;;
51943;SDS011;37969;53.132;6.370;2023-04-03T06:05:42;13.02;;;3.97;;
51943;SDS011;37969;53.132;6.370;2023-04-03T06:08:09;10.45;;;4.13;;
51943;SDS011;37969;53.132;6.370;2023-04-03T06:10:35;7.80;;;3.75;;
51943;SDS011;37969;53.132;6.370;2023-04-03T06:13:01;8.63;;;3.97;;
51943;SDS011;37969;53.132;6.370;2023-04-03T06:15:27;14.27;;;4.13;;
51943;SDS011;37969;53.132;6.370;2023-04-03T06:17:54;13.90;;;3.72;;
51943;SDS011;37969;53.132;6.370;2023-04-03T06:20:20;12.75;;;3.42;;
51943;SDS011;37969;53.132;6.370;2023-04-03T06:22:47;19.25;;;4.15;;
51943;SDS011;37969;53.132;6.370;2023-04-03T06:25:13;13.00;;;3.97;;
51943;SDS011;37969;53.132;6.370;2023-04-03T06:27:41;13.50;;;3.75;;
51943;SDS011;37969;53.132;6.370;2023-04-03T06:30:07;10.05;;;3.92;;
51943;SDS011;37969;53.132;6.370;2023-04-03T06:32:34;16.40;;;4.55;;
51943;SDS011;37969;53.132;6.370;2023-04-03T06:35:00;12.05;;;4.03;;
51943;SDS011;37969;53.132;6.370;2023-04-03T06:37:26;8.65;;;3.72;;
51943;SDS011;37969;53.132;6.370;2023-04-03T06:39:54;11.25;;;3.88;;
51943;SDS011;37969;53.132;6.370;2023-04-03T06:42:21;9.32;;;4.00;;
51943;SDS011;37969;53.132;6.370;2023-04-03T06:44:47;6.57;;;3.50;;
51943;SDS011;37969;53.132;6.370;2023-04-03T06:47:13;7.40;;;3.03;;
51943;SDS011;37969;53.132;6.370;2023-04-03T06:49:40;12.40;;;3.20;;
51943;SDS011;37969;53.132;6.370;2023-04-03T06:52:06;9.95;;;3.53;;
51943;SDS011;37969;53.132;6.370;2023-04-03T06:54:33;15.32;;;3.95;;
51943;SDS011;37969;53.132;6.370;2023-04-03T06:56:59;11.05;;;3.58;;
51943;SDS011;37969;53.132;6.370;2023-04-03T06:59:26;7.60;;;3.42;;
51943;SDS011;37969;53.132;6.370;2023-04-03T07:01:53;7.93;;;2.70;;
51943;SDS011;37969;53.132;6.370;2023-04-03T07:04:19;8.73;;;3.25;;
51943;SDS011;37969;53.132;6.370;2023-04-03T07:06:45;7.15;;;3.20;;
51943;SDS011;37969;53.132;6.370;2023-04-03T07:09:12;12.15;;;2.80;;
51943;SDS011;37969;53.132;6.370;2023-04-03T07:11:38;8.57;;;2.92;;
51943;SDS011;37969;53.132;6.370;2023-04-03T07:14:05;10.02;;;3.13;;
51943;SDS011;37969;53.132;6.370;2023-04-03T07:16:33;8.45;;;2.63;;
51943;SDS011;37969;53.132;6.370;2023-04-03T07:18:59;11.20;;;3.00;;
51943;SDS011;37969;53.132;6.370;2023-04-03T07:21:26;8.65;;;3.13;;
51943;SDS011;37969;53.132;6.370;2023-04-03T07:23:53;7.20;;;2.35;;
51943;SDS011;37969;53.132;6.370;2023-04-03T07:26:19;8.88;;;2.45;;
51943;SDS011;37969;53.132;6.370;2023-04-03T07:28:46;8.13;;;2.60;;
51943;SDS011;37969;53.132;6.370;2023-04-03T07:31:13;7.78;;;2.60;;
51943;SDS011;37969;53.132;6.370;2023-04-03T07:33:41;7.47;;;2.65;;
51943;SDS011;37969;53.132;6.370;2023-04-03T07:36:07;8.85;;;2.53;;
51943;SDS011;37969;53.132;6.370;2023-04-03T07:38:34;8.15;;;2.22;;
51943;SDS011;37969;53.132;6.370;2023-04-03T07:41:01;8.95;;;2.33;;
51943;SDS011;37969;53.132;6.370;2023-04-03T07:43:27;6.82;;;2.40;;
51943;SDS011;37969;53.132;6.370;2023-04-03T07:45:53;8.18;;;2.47;;
51943;SDS011;37969;53.132;6.370;2023-04-03T07:48:20;6.68;;;2.67;;
51943;SDS011;37969;53.132;6.370;2023-04-03T07:50:47;5.38;;;1.95;;
51943;SDS011;37969;53.132;6.370;2023-04-03T07:53:13;8.65;;;2.33;;
51943;SDS011;37969;53.132;6.370;2023-04-03T07:55:39;10.48;;;2.67;;
51943;SDS011;37969;53.132;6.370;2023-04-03T07:58:12;5.28;;;2.10;;
51943;SDS011;37969;53.132;6.370;2023-04-03T08:00:38;4.80;;;2.20;;
51943;SDS011;37969;53.132;6.370;2023-04-03T08:03:05;5.68;;;2.13;;
51943;SDS011;37969;53.132;6.370;2023-04-03T08:05:31;8.75;;;2.20;;
51943;SDS011;37969;53.132;6.370;2023-04-03T08:07:57;7.13;;;2.55;;
51943;SDS011;37969;53.132;6.370;2023-04-03T08:10:24;7.57;;;2.20;;
51943;SDS011;37969;53.132;6.370;2023-04-03T08:12:50;5.82;;;2.28;;
51943;SDS011;37969;53.132;6.370;2023-04-03T08:15:16;5.07;;;1.88;;
51943;SDS011;37969;53.132;6.370;2023-04-03T08:17:42;7.47;;;1.88;;
51943;SDS011;37969;53.132;6.370;2023-04-03T08:20:09;8.02;;;1.88;;
51943;SDS011;37969;53.132;6.370;2023-04-03T08:22:35;6.35;;;2.20;;
51943;SDS011;37969;53.132;6.370;2023-04-03T08:25:01;5.80;;;2.28;;
51943;SDS011;37969;53.132;6.370;2023-04-03T08:27:28;5.32;;;2.08;;
51943;SDS011;37969;53.132;6.370;2023-04-03T08:29:54;3.58;;;1.50;;
51943;SDS011;37969;53.132;6.370;2023-04-03T08:32:22;4.28;;;1.92;;
51943;SDS011;37969;53.132;6.370;2023-04-03T08:34:48;8.73;;;2.50;;
51943;SDS011;37969;53.132;6.370;2023-04-03T08:37:14;7.35;;;2.10;;
51943;SDS011;37969;53.132;6.370;2023-04-03T08:39:41;8.98;;;2.20;;
51943;SDS011;37969;53.132;6.370;2023-04-03T08:42:14;5.68;;;1.90;;
51943;SDS011;37969;53.132;6.370;2023-04-03T08:44:46;12.90;;;2.17;;
51943;SDS011;37969;53.132;6.370;2023-04-03T08:47:23;5.78;;;1.90;;
51943;SDS011;37969;53.132;6.370;2023-04-03T08:52:19;4.93;;;1.92;;
51943;SDS011;37969;53.132;6.370;2023-04-03T08:54:51;6.68;;;1.80;;
51943;SDS011;37969;53.132;6.370;2023-04-03T08:57:20;4.63;;;1.55;;
51943;SDS011;37969;53.132;6.370;2023-04-03T08:59:49;6.07;;;1.48;;
51943;SDS011;37969;53.132;6.370;2023-04-03T09:02:24;8.43;;;2.15;;
51943;SDS011;37969;53.132;6.370;2023-04-03T09:04:52;7.53;;;1.92;;
51943;SDS011;37969;53.132;6.370;2023-04-03T09:07:25;5.75;;;1.33;;
51943;SDS011;37969;53.132;6.370;2023-04-03T09:09:57;4.20;;;2.00;;
51943;SDS011;37969;53.132;6.370;2023-04-03T09:12:27;7.53;;;1.70;;
51943;SDS011;37969;53.132;6.370;2023-04-03T09:17:34;5.80;;;1.77;;
51943;SDS011;37969;53.132;6.370;2023-04-03T09:20:08;6.30;;;1.75;;
51943;SDS011;37969;53.132;6.370;2023-04-03T09:22:38;5.28;;;1.63;;
51943;SDS011;37969;53.132;6.370;2023-04-03T09:25:06;3.50;;;1.75;;
51943;SDS011;37969;53.132;6.370;2023-04-03T09:27:34;4.00;;;1.55;;
51943;SDS011;37969;53.132;6.370;2023-04-03T09:30:00;1.50;;;1.10;;
51943;SDS011;37969;53.132;6.370;2023-04-03T09:32:28;5.57;;;1.50;;
51943;SDS011;37969;53.132;6.370;2023-04-03T09:34:56;4.68;;;1.35;;
51943;SDS011;37969;53.132;6.370;2023-04-03T09:42:51;4.65;;;1.70;;
51943;SDS011;37969;53.132;6.370;2023-04-03T09:45:26;3.00;;;1.20;;
51943;SDS011;37969;53.132;6.370;2023-04-03T09:50:32;3.53;;;1.20;;
51943;SDS011;37969;53.132;6.370;2023-04-03T09:53:01;6.90;;;1.42;;
51943;SDS011;37969;53.132;6.370;2023-04-03T09:55:30;2.60;;;1.40;;
51943;SDS011;37969;53.132;6.370;2023-04-03T09:57:58;2.75;;;1.10;;
51943;SDS011;37969;53.132;6.370;2023-04-03T10:00:27;1.60;;;1.10;;
51943;SDS011;37969;53.132;6.370;2023-04-03T10:02:54;3.20;;;1.02;;
51943;SDS011;37969;53.132;6.370;2023-04-03T10:05:32;4.32;;;1.13;;
51943;SDS011;37969;53.132;6.370;2023-04-03T10:08:07;3.15;;;1.48;;
51943;SDS011;37969;53.132;6.370;2023-04-03T10:10:34;3.10;;;1.30;;
51943;SDS011;37969;53.132;6.370;2023-04-03T10:13:07;3.40;;;1.40;;
51943;SDS011;37969;53.132;6.370;2023-04-03T10:15:39;2.85;;;1.10;;
51943;SDS011;37969;53.132;6.370;2023-04-03T10:18:10;4.65;;;1.35;;
51943;SDS011;37969;53.132;6.370;2023-04-03T10:20:43;3.70;;;1.38;;
51943;SDS011;37969;53.132;6.370;2023-04-03T10:25:43;2.70;;;1.15;;
51943;SDS011;37969;53.132;6.370;2023-04-03T10:28:21;3.05;;;1.20;;
51943;SDS011;37969;53.132;6.370;2023-04-03T10:30:54;2.63;;;1.33;;
51943;SDS011;37969;53.132;6.370;2023-04-03T10:36:25;2.55;;;1.08;;
51943;SDS011;37969;53.132;6.370;2023-04-03T10:46:33;2.45;;;1.10;;
51943;SDS011;37969;53.132;6.370;2023-04-03T10:49:19;3.08;;;1.20;;
51943;SDS011;37969;53.132;6.370;2023-04-03T10:51:48;2.90;;;1.10;;
51943;SDS011;37969;53.132;6.370;2023-04-03T10:56:44;2.80;;;0.88;;
51943;SDS011;37969;53.132;6.370;2023-04-03T10:59:16;4.18;;;0.98;;
51943;SDS011;37969;53.132;6.370;2023-04-03T11:04:09;2.17;;;0.98;;
51943;SDS011;37969;53.132;6.370;2023-04-03T11:06:40;2.30;;;1.25;;
51943;SDS011;37969;53.132;6.370;2023-04-03T11:09:14;0.70;;;0.70;;
51943;SDS011;37969;53.132;6.370;2023-04-03T11:11:43;3.10;;;1.13;;
51943;SDS011;37969;53.132;6.370;2023-04-03T11:14:26;2.35;;;1.08;;
51943;SDS011;37969;53.132;6.370;2023-04-03T11:17:05;1.27;;;1.15;;
51943;SDS011;37969;53.132;6.370;2023-04-03T11:19:38;2.08;;;0.88;;
51943;SDS011;37969;53.132;6.370;2023-04-03T11:22:13;2.60;;;1.00;;
51943;SDS011;37969;53.132;6.370;2023-04-03T11:24:43;2.22;;;0.90;;
51943;SDS011;37969;53.132;6.370;2023-04-03T11:29:39;2.28;;;1.00;;
51943;SDS011;37969;53.132;6.370;2023-04-03T11:34:42;4.15;;;1.00;;
51943;SDS011;37969;53.132;6.370;2023-04-03T11:37:15;2.50;;;1.05;;
51943;SDS011;37969;53.132;6.370;2023-04-03T11:39:47;2.75;;;1.27;;
51943;SDS011;37969;53.132;6.370;2023-04-03T11:42:16;2.95;;;0.90;;
51943;SDS011;37969;53.132;6.370;2023-04-03T11:44:43;2.75;;;1.20;;
51943;SDS011;37969;53.132;6.370;2023-04-03T11:47:10;1.73;;;0.90;;
51943;SDS011;37969;53.132;6.370;2023-04-03T11:52:53;1.35;;;0.80;;
51943;SDS011;37969;53.132;6.370;2023-04-03T11:55:01;1.90;;;1.33;;
51943;SDS011;37969;53.132;6.370;2023-04-03T11:57:44;3.67;;;1.00;;
51943;SDS011;37969;53.132;6.370;2023-04-03T12:02:56;3.75;;;1.20;;
51943;SDS011;37969;53.132;6.370;2023-04-03T12:05:24;1.73;;;0.98;;
51943;SDS011;37969;53.132;6.370;2023-04-03T12:10:38;2.55;;;1.48;;
51943;SDS011;37969;53.132;6.370;2023-04-03T12:13:15;2.47;;;1.00;;
51943;SDS011;37969;53.132;6.370;2023-04-03T12:15:47;3.90;;;1.17;;
51943;SDS011;37969;53.132;6.370;2023-04-03T12:21:00;3.38;;;1.00;;
51943;SDS011;37969;53.132;6.370;2023-04-03T12:23:27;4.07;;;1.30;;
51943;SDS011;37969;53.132;6.370;2023-04-03T12:25:59;2.20;;;1.10;;
51943;SDS011;37969;53.132;6.370;2023-04-03T12:28:25;1.90;;;1.17;;
51943;SDS011;37969;53.132;6.370;2023-04-03T12:30:53;3.03;;;1.00;;
51943;SDS011;37969;53.132;6.370;2023-04-03T12:33:22;2.22;;;1.40;;
51943;SDS011;37969;53.132;6.370;2023-04-03T12:38:26;2.97;;;1.20;;
51943;SDS011;37969;53.132;6.370;2023-04-03T12:43:36;2.65;;;1.17;;
51943;SDS011;37969;53.132;6.370;2023-04-03T12:48:37;2.70;;;0.90;;
51943;SDS011;37969;53.132;6.370;2023-04-03T12:51:03;3.65;;;1.30;;
51943;SDS011;37969;53.132;6.370;2023-04-03T12:53:32;1.25;;;1.00;;
51943;SDS011;37969;53.132;6.370;2023-04-03T12:56:18;2.38;;;1.15;;
51943;SDS011;37969;53.132;6.370;2023-04-03T12:58:45;3.42;;;1.17;;
51943;SDS011;37969;53.132;6.370;2023-04-03T13:01:12;4.22;;;1.48;;
51943;SDS011;37969;53.132;6.370;2023-04-03T13:03:40;1.67;;;1.05;;
51943;SDS011;37969;53.132;6.370;2023-04-03T13:06:17;3.80;;;1.23;;
51943;SDS011;37969;53.132;6.370;2023-04-03T13:08:49;1.52;;;1.10;;
51943;SDS011;37969;53.132;6.370;2023-04-03T13:11:15;2.58;;;1.20;;
51943;SDS011;37969;53.132;6.370;2023-04-03T13:13:53;3.30;;;1.10;;
51943;SDS011;37969;53.132;6.370;2023-04-03T13:16:19;1.75;;;0.90;;
51943;SDS011;37969;53.132;6.370;2023-04-03T13:18:50;6.88;;;1.25;;
51943;SDS011;37969;53.132;6.370;2023-04-03T13:21:17;1.90;;;1.13;;
51943;SDS011;37969;53.132;6.370;2023-04-03T13:23:45;4.47;;;1.65;;
51943;SDS011;37969;53.132;6.370;2023-04-03T13:26:12;1.48;;;1.13;;
51943;SDS011;37969;53.132;6.370;2023-04-03T13:28:39;2.65;;;1.48;;
51943;SDS011;37969;53.132;6.370;2023-04-03T13:31:07;2.50;;;1.23;;
51943;SDS011;37969;53.132;6.370;2023-04-03T13:33:35;1.48;;;1.30;;
51943;SDS011;37969;53.132;6.370;2023-04-03T13:36:05;4.30;;;1.60;;
51943;SDS011;37969;53.132;6.370;2023-04-03T13:38:32;3.42;;;1.40;;
51943;SDS011;37969;53.132;6.370;2023-04-03T13:41:02;3.50;;;1.30;;
51943;SDS011;37969;53.132;6.370;2023-04-03T13:43:30;1.95;;;1.23;;
51943;SDS011;37969;53.132;6.370;2023-04-03T13:45:59;3.30;;;1.27;;
51943;SDS011;37969;53.132;6.370;2023-04-03T13:48:27;1.30;;;1.20;;
51943;SDS011;37969;53.132;6.370;2023-04-03T13:51:02;2.15;;;1.45;;
51943;SDS011;37969;53.132;6.370;2023-04-03T13:53:30;1.50;;;0.98;;
51943;SDS011;37969;53.132;6.370;2023-04-03T13:55:59;2.75;;;1.13;;
51943;SDS011;37969;53.132;6.370;2023-04-03T13:58:26;2.27;;;1.30;;
51943;SDS011;37969;53.132;6.370;2023-04-03T14:00:56;2.60;;;1.25;;
51943;SDS011;37969;53.132;6.370;2023-04-03T14:05:51;2.10;;;1.27;;
51943;SDS011;37969;53.132;6.370;2023-04-03T14:08:18;2.05;;;1.35;;
51943;SDS011;37969;53.132;6.370;2023-04-03T14:10:44;2.83;;;1.38;;
51943;SDS011;37969;53.132;6.370;2023-04-03T14:13:13;1.75;;;1.20;;
51943;SDS011;37969;53.132;6.370;2023-04-03T14:15:40;2.85;;;1.00;;
51943;SDS011;37969;53.132;6.370;2023-04-03T14:18:15;1.17;;;1.02;;
51943;SDS011;37969;53.132;6.370;2023-04-03T14:20:42;3.75;;;1.10;;
51943;SDS011;37969;53.132;6.370;2023-04-03T14:23:08;1.95;;;1.17;;
51943;SDS011;37969;53.132;6.370;2023-04-03T14:25:35;1.70;;;1.30;;
51943;SDS011;37969;53.132;6.370;2023-04-03T14:28:06;1.63;;;0.98;;
51943;SDS011;37969;53.132;6.370;2023-04-03T14:30:38;3.25;;;1.25;;
51943;SDS011;37969;53.132;6.370;2023-04-03T14:33:05;4.47;;;1.20;;
51943;SDS011;37969;53.132;6.370;2023-04-03T14:35:32;3.53;;;1.10;;
51943;SDS011;37969;53.132;6.370;2023-04-03T14:37:58;2.58;;;1.00;;
51943;SDS011;37969;53.132;6.370;2023-04-03T14:40:25;2.72;;;1.20;;
51943;SDS011;37969;53.132;6.370;2023-04-03T14:42:52;1.52;;;1.35;;
51943;SDS011;37969;53.132;6.370;2023-04-03T14:45:20;2.33;;;1.17;;
51943;SDS011;37969;53.132;6.370;2023-04-03T14:47:47;3.28;;;1.25;;
51943;SDS011;37969;53.132;6.370;2023-04-03T14:50:16;1.88;;;1.23;;
51943;SDS011;37969;53.132;6.370;2023-04-03T14:52:43;1.80;;;1.30;;
51943;SDS011;37969;53.132;6.370;2023-04-03T14:55:11;3.85;;;1.92;;
51943;SDS011;37969;53.132;6.370;2023-04-03T14:57:38;1.98;;;1.15;;
51943;SDS011;37969;53.132;6.370;2023-04-03T15:00:06;3.75;;;1.58;;
51943;SDS011;37969;53.132;6.370;2023-04-03T15:02:34;2.33;;;1.35;;
51943;SDS011;37969;53.132;6.370;2023-04-03T15:05:01;2.15;;;1.42;;
51943;SDS011;37969;53.132;6.370;2023-04-03T15:07:30;2.80;;;1.33;;
51943;SDS011;37969;53.132;6.370;2023-04-03T15:09:57;3.60;;;1.38;;
51943;SDS011;37969;53.132;6.370;2023-04-03T15:12:24;2.60;;;1.17;;
51943;SDS011;37969;53.132;6.370;2023-04-03T15:14:50;2.83;;;1.40;;
51943;SDS011;37969;53.132;6.370;2023-04-03T15:17:17;1.98;;;1.10;;
51943;SDS011;37969;53.132;6.370;2023-04-03T15:19:43;4.07;;;1.20;;
51943;SDS011;37969;53.132;6.370;2023-04-03T15:22:16;2.95;;;1.00;;
51943;SDS011;37969;53.132;6.370;2023-04-03T15:24:43;2.20;;;1.00;;
51943;SDS011;37969;53.132;6.370;2023-04-03T15:27:10;2.25;;;1.30;;
51943;SDS011;37969;53.132;6.370;2023-04-03T15:29:37;1.65;;;1.08;;
51943;SDS011;37969;53.132;6.370;2023-04-03T15:32:04;2.92;;;1.42;;
51943;SDS011;37969;53.132;6.370;2023-04-03T15:34:31;2.17;;;1.20;;
51943;SDS011;37969;53.132;6.370;2023-04-03T15:36:57;3.67;;;1.00;;
51943;SDS011;37969;53.132;6.370;2023-04-03T15:39:24;3.45;;;1.13;;
51943;SDS011;37969;53.132;6.370;2023-04-03T15:41:50;2.72;;;1.25;;
51943;SDS011;37969;53.132;6.370;2023-04-03T15:44:18;4.72;;;1.40;;
51943;SDS011;37969;53.132;6.370;2023-04-03T15:46:46;4.88;;;1.38;;
51943;SDS011;37969;53.132;6.370;2023-04-03T15:49:14;2.22;;;1.23;;